Time;durP1;ratioP1;P1;durP2;ratioP2;P2;SDS_P1;SDS_P2;PMS_P1;PMS_P2;Temp;Humidity;BMP_temperature;BMP_pressure;BME280_temperature;BME280_humidity;BME280_pressure;Samples;Min_cycle;Max_cycle;Signal;HPM_P1;HPM_P2
2023/08/08 00:00:09;;;;;;;0.00;0.00;;;13.70;99.90;;;;;;5025080;28;20022;-76
2023/08/08 00:02:35;;;;;;;0.00;0.00;;;13.70;99.90;;;;;;5023037;28;20108;-77
2023/08/08 00:05:01;;;;;;;0.00;0.00;;;13.70;99.90;;;;;;5024288;28;20022;-75
2023/08/08 00:07:30;;;;;;;0.00;0.00;;;13.70;99.90;;;;;;5020883;28;20037;-75
2023/08/08 00:09:56;;;;;;;0.00;0.00;;;13.70;99.90;;;;;;5007185;28;20056;-75
2023/08/08 00:12:22;;;;;;;;;;;13.70;99.90;;;;;;5004134;28;20022;-76
2023/08/08 00:14:48;;;;;;;0.00;0.00;;;13.80;99.90;;;;;;5024293;28;19953;-78
2023/08/08 00:17:13;;;;;;;0.00;0.00;;;13.80;99.90;;;;;;5024390;28;20109;-77
2023/08/08 00:19:39;;;;;;;0.00;0.00;;;13.70;99.90;;;;;;5005473;28;20018;-78
2023/08/08 00:22:05;;;;;;;0.00;0.00;;;13.80;99.90;;;;;;5023936;28;20282;-78
2023/08/08 00:24:31;;;;;;;0.00;0.00;;;13.80;99.90;;;;;;5018808;28;20049;-75
2023/08/08 00:26:57;;;;;;;0.00;0.00;;;13.80;99.90;;;;;;5027181;28;20034;-75
2023/08/08 00:29:23;;;;;;;0.00;0.00;;;13.90;99.90;;;;;;5023346;28;20049;-77
2023/08/08 00:31:48;;;;;;;0.00;0.00;;;13.80;99.90;;;;;;5025468;28;20037;-78
2023/08/08 00:34:14;;;;;;;0.00;0.00;;;13.80;99.90;;;;;;5022511;28;20297;-75
2023/08/08 00:36:40;;;;;;;0.00;0.00;;;13.70;99.90;;;;;;5028833;28;20113;-76
2023/08/08 00:39:05;;;;;;;0.00;0.00;;;13.70;99.90;;;;;;5009288;28;20273;-75
2023/08/08 00:41:31;;;;;;;0.00;0.00;;;13.70;99.90;;;;;;5023537;28;20028;-77
2023/08/08 00:43:57;;;;;;;0.00;0.00;;;13.70;99.90;;;;;;5026858;28;20030;-76
2023/08/08 00:46:24;;;;;;;0.00;0.00;;;13.70;99.90;;;;;;5009759;28;20113;-75
2023/08/08 00:48:51;;;;;;;0.00;0.00;;;13.60;99.90;;;;;;5021899;28;20033;-76
2023/08/08 00:51:18;;;;;;;0.00;0.00;;;13.60;99.90;;;;;;5025286;28;20010;-74
2023/08/08 00:53:44;;;;;;;0.00;0.00;;;13.60;99.90;;;;;;5025193;28;20029;-78
2023/08/08 00:56:11;;;;;;;;;;;13.70;99.90;;;;;;5024661;28;20014;-76
2023/08/08 00:58:37;;;;;;;0.00;0.00;;;13.70;99.90;;;;;;5022852;28;19910;-78
2023/08/08 01:01:03;;;;;;;0.00;0.00;;;13.60;99.90;;;;;;5155177;23;20040;-77
2023/08/08 01:03:29;;;;;;;0.00;0.00;;;13.60;99.90;;;;;;5063588;28;20033;-76
2023/08/08 01:06:06;;;;;;;0.00;0.00;;;13.60;99.90;;;;;;5037819;28;20061;-75
2023/08/08 01:08:45;;;;;;;0.00;0.00;;;13.60;99.90;;;;;;5025170;28;20081;-75
2023/08/08 01:11:13;;;;;;;0.00;0.00;;;13.60;99.90;;;;;;5030617;28;20076;-76
2023/08/08 01:13:40;;;;;;;0.00;0.00;;;13.60;99.90;;;;;;5024360;28;20007;-76
2023/08/08 01:16:07;;;;;;;0.00;0.00;;;13.50;99.90;;;;;;5007915;28;20038;-79
2023/08/08 01:18:34;;;;;;;0.00;0.00;;;13.70;99.90;;;;;;5009753;28;20026;-76
2023/08/08 01:21:02;;;;;;;0.00;0.00;;;13.70;99.90;;;;;;5029308;28;20120;-76
2023/08/08 01:23:46;;;;;;;0.00;0.00;;;13.70;99.90;;;;;;5044140;28;20047;-75
2023/08/08 01:26:13;;;;;;;0.00;0.00;;;13.60;99.90;;;;;;5022080;28;20173;-77
2023/08/08 01:28:39;;;;;;;0.00;0.00;;;13.60;99.90;;;;;;5026845;28;20022;-74
2023/08/08 01:31:06;;;;;;;0.00;0.00;;;13.60;99.90;;;;;;5013924;28;20118;-76
2023/08/08 01:33:32;;;;;;;0.00;0.00;;;13.00;99.90;;;;;;5031185;28;20040;-75
2023/08/08 01:36:04;;;;;;;0.00;0.00;;;13.50;99.90;;;;;;5022095;28;20198;-77
2023/08/08 01:38:41;;;;;;;0.00;0.00;;;13.40;99.90;;;;;;5030580;28;20099;-75
2023/08/08 01:41:08;;;;;;;0.43;0.43;;;13.40;99.90;;;;;;5047893;28;20013;-76
2023/08/08 01:43:37;;;;;;;0.00;0.00;;;13.70;99.90;;;;;;5029705;28;20042;-76
2023/08/08 01:46:04;;;;;;;1.90;0.10;;;13.50;99.90;;;;;;5027928;28;20010;-78
2023/08/08 01:48:30;;;;;;;0.00;0.00;;;13.50;99.90;;;;;;5031258;28;20021;-75
2023/08/08 01:50:56;;;;;;;0.00;0.00;;;13.50;99.90;;;;;;5048142;28;20031;-76
2023/08/08 01:53:24;;;;;;;0.00;0.00;;;13.50;99.90;;;;;;5026029;28;20097;-77
2023/08/08 01:55:50;;;;;;;0.00;0.00;;;13.50;99.90;;;;;;5029601;28;20037;-76
2023/08/08 01:58:16;;;;;;;0.00;0.00;;;13.50;99.90;;;;;;5022904;28;20571;-77
2023/08/08 02:00:43;;;;;;;0.00;0.00;;;13.50;99.90;;;;;;5028502;28;20053;-76
2023/08/08 02:03:09;;;;;;;0.00;0.00;;;13.50;99.90;;;;;;5008803;28;20038;-76
2023/08/08 02:05:35;;;;;;;0.00;0.00;;;13.40;99.90;;;;;;5010253;28;20061;-77
2023/08/08 02:08:01;;;;;;;0.00;0.00;;;13.40;99.90;;;;;;5036469;28;20021;-75
2023/08/08 02:10:27;;;;;;;0.00;0.00;;;13.40;99.90;;;;;;5028786;28;20038;-77
2023/08/08 02:12:53;;;;;;;0.00;0.00;;;13.40;99.90;;;;;;5019446;28;20106;-76
2023/08/08 02:15:19;;;;;;;0.00;0.00;;;13.40;99.90;;;;;;5029976;28;20018;-77
2023/08/08 02:17:46;;;;;;;0.00;0.00;;;13.40;99.90;;;;;;5008895;28;20100;-76
2023/08/08 02:20:12;;;;;;;0.00;0.00;;;13.50;99.90;;;;;;5011877;28;20022;-75
2023/08/08 02:22:38;;;;;;;0.00;0.00;;;13.40;99.90;;;;;;5034890;28;20028;-74
2023/08/08 02:25:04;;;;;;;0.00;0.00;;;13.40;99.90;;;;;;5034447;28;20044;-76
2023/08/08 02:27:30;;;;;;;0.00;0.00;;;13.40;99.90;;;;;;5037399;28;20432;-76
2023/08/08 02:29:57;;;;;;;0.00;0.00;;;13.40;99.90;;;;;;5010583;28;20041;-78
2023/08/08 02:32:23;;;;;;;0.00;0.00;;;13.40;99.90;;;;;;5033144;28;20145;-76
2023/08/08 02:34:50;;;;;;;0.00;0.00;;;13.40;99.90;;;;;;5026850;28;20024;-76
2023/08/08 02:37:16;;;;;;;0.00;0.00;;;13.40;99.90;;;;;;5033580;28;20034;-76
2023/08/08 02:39:44;;;;;;;0.00;0.00;;;13.20;99.90;;;;;;5025205;28;20033;-77
2023/08/08 02:42:10;;;;;;;0.00;0.00;;;13.30;99.90;;;;;;5026208;28;20021;-76
2023/08/08 02:44:37;;;;;;;0.82;0.25;;;13.40;99.90;;;;;;5044386;28;20184;-74
2023/08/08 02:47:03;;;;;;;0.00;0.00;;;13.30;99.90;;;;;;5030168;28;20030;-77
2023/08/08 02:49:29;;;;;;;0.00;0.00;;;13.30;99.90;;;;;;5048209;28;20040;-75
2023/08/08 02:51:55;;;;;;;0.00;0.00;;;13.20;99.90;;;;;;5048225;28;20026;-76
2023/08/08 02:54:21;;;;;;;0.00;0.00;;;13.30;99.90;;;;;;5044135;28;20039;-76
2023/08/08 02:56:47;;;;;;;0.00;0.00;;;13.20;99.90;;;;;;5029126;28;20045;-76
2023/08/08 02:59:13;;;;;;;0.00;0.00;;;13.30;99.90;;;;;;5025879;28;20022;-76
2023/08/08 03:01:39;;;;;;;0.00;0.00;;;13.20;99.90;;;;;;5027546;28;20412;-76
2023/08/08 03:04:06;;;;;;;0.00;0.00;;;13.20;99.90;;;;;;5029024;28;20017;-77
2023/08/08 03:06:32;;;;;;;0.00;0.00;;;13.20;99.90;;;;;;5038729;28;20045;-76
2023/08/08 03:08:58;;;;;;;0.00;0.00;;;13.20;99.90;;;;;;5044501;28;20022;-77
2023/08/08 03:11:24;;;;;;;0.00;0.00;;;13.20;99.90;;;;;;5030109;28;20087;-76
2023/08/08 03:13:50;;;;;;;0.00;0.00;;;13.20;99.90;;;;;;5020983;28;20014;-75
2023/08/08 03:16:16;;;;;;;0.10;0.10;;;13.10;99.90;;;;;;5043404;28;20028;-77
2023/08/08 03:18:42;;;;;;;0.00;0.00;;;13.10;99.90;;;;;;5026716;28;20014;-77
2023/08/08 03:21:07;;;;;;;0.00;0.00;;;13.00;99.90;;;;;;5013648;28;20053;-75
2023/08/08 03:23:34;;;;;;;0.00;0.00;;;13.00;99.90;;;;;;5035759;28;20077;-75
2023/08/08 03:26:00;;;;;;;0.00;0.00;;;13.00;99.90;;;;;;5025556;28;20014;-76
2023/08/08 03:28:26;;;;;;;0.00;0.00;;;13.00;99.90;;;;;;5025584;28;20029;-75
2023/08/08 03:30:52;;;;;;;0.00;0.00;;;13.00;99.90;;;;;;5022677;28;20029;-76
2023/08/08 03:33:18;;;;;;;0.00;0.00;;;12.90;99.90;;;;;;5031931;28;20053;-77
2023/08/08 03:35:47;;;;;;;0.00;0.00;;;12.90;99.90;;;;;;5023539;28;20037;-75
2023/08/08 03:38:13;;;;;;;0.00;0.00;;;12.90;99.90;;;;;;5009504;28;20033;-75
2023/08/08 03:40:39;;;;;;;0.00;0.00;;;13.00;99.90;;;;;;5027096;28;20010;-76
2023/08/08 03:43:05;;;;;;;0.00;0.00;;;13.00;99.90;;;;;;5007816;28;20042;-76
2023/08/08 03:45:31;;;;;;;0.00;0.00;;;13.00;99.90;;;;;;5015555;28;20034;-76
2023/08/08 03:47:58;;;;;;;0.00;0.00;;;13.00;99.90;;;;;;5026354;28;20065;-76
2023/08/08 03:50:24;;;;;;;0.00;0.00;;;13.00;99.90;;;;;;5028622;28;20052;-75
2023/08/08 03:52:50;;;;;;;0.00;0.00;;;13.10;99.90;;;;;;5043363;28;20041;-75
2023/08/08 03:55:19;;;;;;;0.00;0.00;;;13.10;99.90;;;;;;5029642;28;20045;-75
2023/08/08 03:57:47;;;;;;;0.00;0.00;;;12.70;99.90;;;;;;5026755;28;20018;-75
2023/08/08 04:00:13;;;;;;;0.00;0.00;;;13.30;99.90;;;;;;5042152;28;20022;-76
2023/08/08 04:02:39;;;;;;;0.00;0.00;;;13.30;99.90;;;;;;5047954;28;20022;-77
2023/08/08 04:07:40;;;;;;;0.00;0.00;;;13.50;99.90;;;;;;5086563;22;20054;-76
2023/08/08 04:10:07;;;;;;;0.00;0.00;;;13.60;99.90;;;;;;5025855;28;20061;-76
2023/08/08 04:12:33;;;;;;;;;;;13.70;99.90;;;;;;5006322;28;20275;-76
2023/08/08 04:15:00;;;;;;;0.00;0.00;;;14.70;99.90;;;;;;5027490;28;19951;-74
2023/08/08 04:17:26;;;;;;;0.00;0.00;;;13.80;99.90;;;;;;5006255;28;20021;-77
2023/08/08 04:19:52;;;;;;;0.00;0.00;;;13.90;99.90;;;;;;5009068;28;20070;-76
2023/08/08 04:22:18;;;;;;;0.00;0.00;;;14.00;99.90;;;;;;5022760;28;20030;-76
2023/08/08 04:24:44;;;;;;;0.00;0.00;;;14.00;99.90;;;;;;5012017;28;20034;-76
2023/08/08 04:27:10;;;;;;;0.13;0.10;;;14.00;99.90;;;;;;5024798;28;20033;-76
2023/08/08 04:29:36;;;;;;;0.55;0.15;;;14.10;99.90;;;;;;5009837;28;20246;-76
2023/08/08 04:32:02;;;;;;;0.00;0.00;;;14.20;99.90;;;;;;5026238;28;20022;-76
2023/08/08 04:34:28;;;;;;;0.00;0.00;;;14.40;99.90;;;;;;5006010;28;20029;-76
2023/08/08 04:36:54;;;;;;;0.00;0.00;;;14.50;99.90;;;;;;5026159;28;20034;-76
2023/08/08 04:39:20;;;;;;;0.00;0.00;;;14.90;99.90;;;;;;5008986;28;20068;-77
2023/08/08 04:41:46;;;;;;;0.00;0.00;;;14.70;99.90;;;;;;5008834;28;20026;-76
2023/08/08 04:44:12;;;;;;;0.00;0.00;;;14.70;99.90;;;;;;5029966;28;20042;-76
2023/08/08 04:46:38;;;;;;;0.00;0.00;;;14.80;99.90;;;;;;5010156;28;20022;-76
2023/08/08 04:49:05;;;;;;;0.00;0.00;;;14.80;99.90;;;;;;5024959;28;20389;-76
2023/08/08 04:51:31;;;;;;;0.00;0.00;;;14.90;99.90;;;;;;5009511;28;20022;-76
2023/08/08 04:53:57;;;;;;;0.00;0.00;;;15.00;99.90;;;;;;5023365;28;20030;-75
2023/08/08 04:56:23;;;;;;;0.00;0.00;;;15.10;99.90;;;;;;5025115;28;20079;-76
2023/08/08 04:58:49;;;;;;;0.00;0.00;;;15.10;99.90;;;;;;5025931;28;20010;-77
2023/08/08 05:01:17;;;;;;;0.00;0.00;;;15.10;99.90;;;;;;4996430;28;20099;-73
2023/08/08 05:06:22;;;;;;;0.00;0.00;;;15.40;99.90;;;;;;5890012;23;20050;-76
2023/08/08 05:08:51;;;;;;;0.00;0.00;;;15.50;99.90;;;;;;4993751;28;20065;-76
2023/08/08 05:11:17;;;;;;;0.00;0.00;;;15.60;99.90;;;;;;5007328;28;20105;-76
2023/08/08 05:13:43;;;;;;;0.00;0.00;;;15.20;99.90;;;;;;4997492;28;20019;-76
2023/08/08 05:16:09;;;;;;;0.00;0.00;;;16.00;99.90;;;;;;5021118;28;20086;-77
2023/08/08 05:18:35;;;;;;;0.00;0.00;;;16.40;99.90;;;;;;5025731;28;20049;-77
2023/08/08 05:21:01;;;;;;;0.00;0.00;;;16.70;99.90;;;;;;5001343;28;20090;-80
2023/08/08 05:23:27;;;;;;;0.00;0.00;;;16.90;99.90;;;;;;5007619;28;20125;-77
2023/08/08 05:25:53;;;;;;;0.00;0.00;;;17.00;99.90;;;;;;4998098;28;20022;-78
2023/08/08 05:28:19;;;;;;;0.00;0.00;;;17.40;99.90;;;;;;5024986;28;20021;-80
2023/08/08 05:30:44;;;;;;;0.00;0.00;;;17.50;99.90;;;;;;5004515;28;20110;-75
2023/08/08 05:33:10;;;;;;;0.00;0.00;;;17.90;99.90;;;;;;5004035;28;20081;-80
2023/08/08 05:35:36;;;;;;;0.00;0.00;;;17.80;99.90;;;;;;5006619;28;20064;-75
2023/08/08 05:38:03;;;;;;;0.00;0.00;;;18.00;99.90;;;;;;5003636;28;20036;-77
2023/08/08 05:40:29;;;;;;;0.00;0.00;;;17.90;99.90;;;;;;5013046;28;20010;-78
2023/08/08 05:42:55;;;;;;;0.00;0.00;;;17.90;99.90;;;;;;5015068;28;20038;-77
2023/08/08 05:45:21;;;;;;;0.00;0.00;;;18.00;99.90;;;;;;5004178;28;20034;-80
2023/08/08 05:47:47;;;;;;;0.00;0.00;;;18.30;99.90;;;;;;5007532;28;20026;-78
2023/08/08 05:50:13;;;;;;;0.00;0.00;;;18.30;99.90;;;;;;5030142;28;20041;-77
2023/08/08 05:52:38;;;;;;;0.00;0.00;;;18.30;99.90;;;;;;5003391;28;20037;-77
2023/08/08 05:55:05;;;;;;;0.00;0.00;;;18.40;99.90;;;;;;4988682;28;20040;-78
2023/08/08 05:57:31;;;;;;;0.00;0.00;;;18.50;99.90;;;;;;5028940;28;20026;-76
2023/08/08 05:59:57;;;;;;;0.00;0.00;;;18.70;99.90;;;;;;5010725;28;20101;-80
2023/08/08 06:02:23;;;;;;;0.00;0.00;;;19.10;99.90;;;;;;5007167;28;20060;-77
2023/08/08 06:04:49;;;;;;;0.00;0.00;;;19.30;99.90;;;;;;4991181;28;20006;-76
2023/08/08 06:07:17;;;;;;;0.00;0.00;;;20.00;99.90;;;;;;5012256;28;20030;-76
2023/08/08 06:09:43;;;;;;;0.00;0.00;;;20.40;99.90;;;;;;5027601;28;20061;-77
2023/08/08 06:12:09;;;;;;;0.00;0.00;;;21.90;99.30;;;;;;5012698;28;20015;-79
2023/08/08 06:14:35;;;;;;;;;;;22.90;97.70;;;;;;4989320;28;20018;-78
2023/08/08 06:17:01;;;;;;;0.00;0.00;;;23.60;95.60;;;;;;5022223;28;19924;-76
2023/08/08 06:27:08;;;;;;;0.00;0.00;;;25.70;90.60;;;;;;4996175;28;20047;-82
2023/08/08 06:29:34;;;;;;;;;;;26.60;88.50;;;;;;4998109;28;20033;-87
2023/08/08 06:31:59;;;;;;;0.00;0.00;;;27.80;85.40;;;;;;5003639;28;19909;-81
2023/08/08 06:34:25;;;;;;;0.00;0.00;;;27.30;81.60;;;;;;4988884;28;20049;-82
2023/08/08 06:36:50;;;;;;;0.00;0.00;;;27.30;80.60;;;;;;5005461;28;20034;-78
2023/08/08 06:39:19;;;;;;;0.00;0.00;;;26.90;80.70;;;;;;5017939;28;20031;-79
2023/08/08 06:41:44;;;;;;;0.00;0.00;;;26.30;80.30;;;;;;5003223;28;20009;-82
2023/08/08 06:44:10;;;;;;;0.00;0.00;;;25.50;81.20;;;;;;5006737;28;20030;-78
2023/08/08 06:46:36;;;;;;;0.00;0.00;;;24.90;81.80;;;;;;5022805;28;20006;-79
2023/08/08 06:49:01;;;;;;;0.00;0.00;;;24.40;83.90;;;;;;5006422;28;20015;-78
2023/08/08 06:51:27;;;;;;;;;;;23.70;85.50;;;;;;5006016;28;20010;-78
2023/08/08 06:53:53;;;;;;;0.10;0.00;;;23.50;86.90;;;;;;5007304;28;19921;-80
2023/08/08 06:56:18;;;;;;;;;;;23.70;86.80;;;;;;5007160;28;20026;-79
2023/08/08 06:58:44;;;;;;;0.00;0.00;;;23.90;87.50;;;;;;5009274;28;19981;-78
2023/08/08 07:01:10;;;;;;;0.00;0.00;;;24.70;85.30;;;;;;4988147;28;20112;-85
2023/08/08 07:03:36;;;;;;;;;;;25.00;84.20;;;;;;4984507;28;20062;-78
2023/08/08 07:06:02;;;;;;;0.00;0.00;;;25.10;84.00;;;;;;4983126;28;19913;-88
2023/08/08 07:08:29;;;;;;;0.00;0.00;;;25.60;83.10;;;;;;4995146;28;20047;-87
2023/08/08 07:10:56;;;;;;;0.00;0.00;;;25.70;82.00;;;;;;4981683;28;20029;-80
2023/08/08 07:13:22;;;;;;;0.00;0.00;;;25.10;81.40;;;;;;5008846;28;20034;-81
2023/08/08 07:15:48;;;;;;;0.00;0.00;;;25.10;82.80;;;;;;5001447;28;20014;-77
2023/08/08 07:18:14;;;;;;;0.00;0.00;;;25.30;80.10;;;;;;4996067;28;20117;-86
2023/08/08 07:20:39;;;;;;;0.32;0.10;;;26.10;81.50;;;;;;4982305;28;20342;-88
2023/08/08 07:23:05;;;;;;;0.00;0.00;;;26.50;79.90;;;;;;4984629;28;20106;-88
2023/08/08 07:25:31;;;;;;;0.00;0.00;;;26.70;78.50;;;;;;4997253;28;20049;-88
2023/08/08 07:27:56;;;;;;;0.00;0.00;;;27.10;77.40;;;;;;4989185;28;20026;-85
2023/08/08 07:30:22;;;;;;;0.00;0.00;;;26.90;76.40;;;;;;4980503;28;20648;-83
2023/08/08 07:32:48;;;;;;;0.00;0.00;;;26.90;76.50;;;;;;4983753;28;20108;-87
2023/08/08 07:35:15;;;;;;;0.00;0.00;;;27.00;76.70;;;;;;4983042;28;20026;-81
2023/08/08 07:37:40;;;;;;;0.00;0.00;;;26.80;76.10;;;;;;4989076;28;20080;-80
2023/08/08 07:40:20;;;;;;;0.00;0.00;;;26.40;76.20;;;;;;5003000;28;20034;-80
2023/08/08 07:42:49;;;;;;;0.00;0.00;;;26.20;76.80;;;;;;5006922;28;20030;-82
2023/08/08 07:45:15;;;;;;;0.00;0.00;;;25.80;77.20;;;;;;5002759;28;20025;-80
2023/08/08 07:47:41;;;;;;;0.00;0.00;;;25.60;77.90;;;;;;5003135;28;20010;-78
2023/08/08 07:50:08;;;;;;;0.00;0.00;;;25.10;77.70;;;;;;5001003;28;20091;-79
2023/08/08 07:52:38;;;;;;;0.00;0.00;;;24.50;79.90;;;;;;5006843;28;20057;-79
2023/08/08 07:55:04;;;;;;;0.00;0.00;;;24.00;81.30;;;;;;5018716;28;20118;-79
2023/08/08 07:57:33;;;;;;;0.00;0.00;;;24.00;81.60;;;;;;4994259;28;20027;-80
2023/08/08 08:00:00;;;;;;;0.00;0.00;;;25.20;80.50;;;;;;4983445;28;20106;-82
2023/08/08 08:02:26;;;;;;;0.00;0.00;;;26.50;78.40;;;;;;4980927;28;20070;-82
2023/08/08 08:04:51;;;;;;;0.00;0.00;;;27.10;76.40;;;;;;4980371;28;20524;-85
2023/08/08 08:07:17;;;;;;;0.10;0.10;;;26.50;75.70;;;;;;4982163;28;20056;-87
2023/08/08 08:09:43;;;;;;;0.00;0.00;;;26.30;77.00;;;;;;4998425;28;20086;-78
2023/08/08 08:12:09;;;;;;;0.00;0.00;;;25.70;77.20;;;;;;5001445;28;20018;-79
2023/08/08 08:14:34;;;;;;;0.00;0.00;;;25.20;78.20;;;;;;5003667;28;20002;-78
2023/08/08 08:17:00;;;;;;;;;;;24.80;79.00;;;;;;5000833;28;20141;-79
2023/08/08 08:19:26;;;;;;;0.00;0.00;;;24.10;79.50;;;;;;5004400;28;19933;-78
2023/08/08 08:21:51;;;;;;;;;;;23.60;81.70;;;;;;5001877;28;20011;-78
2023/08/08 08:24:17;;;;;;;0.05;0.05;;;23.00;82.80;;;;;;5018502;28;19938;-77
2023/08/08 08:26:43;;;;;;;0.00;0.00;;;22.50;84.20;;;;;;5002418;28;20111;-78
2023/08/08 08:29:08;;;;;;;0.00;0.00;;;22.10;85.70;;;;;;5000539;28;20027;-78
2023/08/08 08:31:34;;;;;;;0.00;0.00;;;21.50;87.00;;;;;;4984252;28;20061;-80
2023/08/08 08:34:00;;;;;;;0.00;0.00;;;21.30;88.30;;;;;;4992490;28;20037;-79
2023/08/08 08:36:26;;;;;;;0.00;0.00;;;20.90;88.80;;;;;;5005102;28;20031;-76
2023/08/08 08:38:52;;;;;;;0.00;0.00;;;20.80;90.00;;;;;;5015002;28;20025;-77
2023/08/08 08:41:20;;;;;;;;;;;20.80;90.30;;;;;;5009877;28;20216;-76
2023/08/08 08:43:46;;;;;;;0.00;0.00;;;20.90;90.50;;;;;;5009409;28;19917;-76
2023/08/08 08:46:14;;;;;;;0.00;0.00;;;20.90;90.50;;;;;;5010007;28;20052;-76
2023/08/08 08:48:41;;;;;;;0.00;0.00;;;20.80;90.50;;;;;;5010813;28;20033;-76
2023/08/08 08:51:07;;;;;;;0.00;0.00;;;20.80;90.70;;;;;;5010183;28;20030;-77
2023/08/08 08:53:34;;;;;;;0.00;0.00;;;20.90;91.00;;;;;;5007454;28;20022;-75
2023/08/08 08:56:01;;;;;;;0.00;0.00;;;21.10;90.90;;;;;;5011709;28;20030;-79
2023/08/08 08:58:28;;;;;;;0.00;0.00;;;21.80;90.10;;;;;;5026676;28;20106;-76
2023/08/08 09:00:55;;;;;;;0.00;0.00;;;22.90;88.10;;;;;;5007511;28;20022;-77
2023/08/08 09:03:21;;;;;;;0.00;0.00;;;24.70;84.80;;;;;;5462392;22;20091;-75
2023/08/08 09:05:48;;;;;;;0.00;0.00;;;26.30;81.40;;;;;;4995228;28;20125;-87
2023/08/08 09:08:15;;;;;;;0.00;0.00;;;28.00;79.10;;;;;;4985240;28;20026;-87
2023/08/08 09:10:40;;;;;;;0.00;0.00;;;29.60;72.80;;;;;;5005585;28;20118;-85
2023/08/08 09:13:06;;;;;;;0.00;0.00;;;31.30;70.10;;;;;;4973699;28;20105;-88
2023/08/08 09:15:33;;;;;;;0.00;0.00;;;32.90;66.80;;;;;;4966290;28;20034;-88
2023/08/08 09:18:00;;;;;;;0.00;0.00;;;33.90;63.60;;;;;;4985389;28;20439;-86
2023/08/08 09:20:28;;;;;;;0.00;0.00;;;34.70;60.10;;;;;;5002752;28;20026;-87
2023/08/08 09:22:54;;;;;;;0.00;0.00;;;35.10;58.30;;;;;;4986644;28;20120;-81
2023/08/08 09:25:20;;;;;;;0.00;0.00;;;35.50;57.00;;;;;;4981216;28;20030;-79
2023/08/08 09:27:47;;;;;;;0.03;0.03;;;34.80;54.70;;;;;;4984414;28;20553;-84
2023/08/08 09:30:13;;;;;;;0.00;0.00;;;35.40;55.20;;;;;;4985752;28;20018;-83
2023/08/08 09:32:39;;;;;;;0.05;0.00;;;34.70;54.60;;;;;;4986099;28;20113;-80
2023/08/08 09:35:09;;;;;;;0.10;0.10;;;34.40;54.30;;;;;;4988850;28;20720;-82
2023/08/08 09:37:35;;;;;;;0.00;0.00;;;35.20;54.70;;;;;;4964853;28;20026;-82
2023/08/08 09:40:05;;;;;;;0.00;0.00;;;35.60;53.70;;;;;;4964154;28;20428;-80
2023/08/08 09:42:31;;;;;;;0.00;0.00;;;35.60;53.20;;;;;;4977960;28;20058;-83
2023/08/08 09:44:57;;;;;;;0.00;0.00;;;35.40;52.70;;;;;;4973197;28;20045;-83
2023/08/08 09:47:24;;;;;;;0.00;0.00;;;34.80;52.60;;;;;;5003391;28;20022;-82
2023/08/08 09:49:50;;;;;;;0.00;0.00;;;35.00;53.00;;;;;;4981923;28;20046;-80
2023/08/08 09:52:16;;;;;;;0.00;0.00;;;34.80;52.00;;;;;;4984479;28;20030;-82
2023/08/08 09:54:42;;;;;;;0.00;0.00;;;34.30;52.50;;;;;;4989948;28;20660;-81
2023/08/08 09:57:09;;;;;;;0.00;0.00;;;34.40;52.30;;;;;;4987162;28;20096;-81
2023/08/08 09:59:36;;;;;;;0.00;0.00;;;34.60;52.30;;;;;;4982391;28;20034;-82
2023/08/08 10:02:02;;;;;;;0.30;0.17;;;34.20;52.90;;;;;;4985175;28;20478;-79
2023/08/08 10:04:27;;;;;;;1.45;0.10;;;34.70;52.60;;;;;;4979310;28;20031;-81
2023/08/08 10:06:53;;;;;;;0.00;0.00;;;35.20;52.10;;;;;;4985837;28;20026;-82
2023/08/08 10:09:19;;;;;;;0.00;0.00;;;35.00;51.40;;;;;;4964697;28;20133;-81
2023/08/08 10:11:46;;;;;;;0.00;0.00;;;34.30;51.90;;;;;;4997284;28;20058;-80
2023/08/08 10:14:14;;;;;;;0.00;0.00;;;34.40;52.40;;;;;;4967011;28;20037;-82
2023/08/08 10:16:41;;;;;;;0.00;0.00;;;34.60;52.20;;;;;;4962245;28;20026;-83
2023/08/08 10:19:07;;;;;;;0.00;0.00;;;35.00;52.00;;;;;;4983077;28;20371;-81
2023/08/08 10:21:41;;;;;;;0.00;0.00;;;34.80;52.50;;;;;;4980632;28;20037;-80
2023/08/08 10:24:10;;;;;;;0.00;0.00;;;35.60;53.60;;;;;;4985523;28;20030;-83
2023/08/08 10:26:57;;;;;;;0.00;0.00;;;35.90;51.20;;;;;;4986485;28;20026;-83
2023/08/08 10:29:26;;;;;;;0.00;0.00;;;36.30;50.70;;;;;;4982981;28;20042;-79
2023/08/08 10:32:03;;;;;;;0.00;0.00;;;36.40;50.80;;;;;;4999261;28;20050;-78
2023/08/08 10:34:41;;;;;;;0.00;0.00;;;34.70;50.30;;;;;;5002809;28;20346;-83
2023/08/08 10:37:12;;;;;;;0.00;0.00;;;34.90;50.80;;;;;;4976782;28;20030;-81
2023/08/08 10:39:57;;;;;;;0.00;0.00;;;35.50;50.50;;;;;;4983444;28;20441;-81
2023/08/08 10:42:24;;;;;;;0.00;0.00;;;35.10;50.40;;;;;;4970449;28;20089;-79
2023/08/08 10:44:55;;;;;;;0.28;0.00;;;35.40;50.80;;;;;;4983351;28;20109;-83
2023/08/08 10:47:35;;;;;;;0.00;0.00;;;36.00;49.90;;;;;;4946785;28;20034;-79
2023/08/08 10:50:14;;;;;;;0.00;0.00;;;36.20;50.70;;;;;;4965173;28;20034;-85
2023/08/08 10:52:50;;;;;;;0.00;0.00;;;35.40;49.20;;;;;;4984555;28;20033;-86
2023/08/08 10:55:22;;;;;;;;;;;34.80;49.80;;;;;;4980119;28;20026;-85
2023/08/08 10:58:19;;;;;;;0.00;0.00;;;35.50;49.70;;;;;;4981765;28;19916;-85
2023/08/08 11:00:45;;;;;;;0.00;0.00;;;35.40;48.90;;;;;;4971650;28;20140;-86
2023/08/08 11:03:11;;;;;;;0.00;0.00;;;34.90;49.70;;;;;;4999213;28;20042;-82
2023/08/08 11:05:38;;;;;;;0.00;0.00;;;34.70;50.30;;;;;;4999518;28;20050;-88
2023/08/08 11:08:05;;;;;;;0.00;0.00;;;32.90;50.60;;;;;;4963814;28;20048;-87
2023/08/08 11:10:39;;;;;;;0.00;0.00;;;31.10;52.40;;;;;;4969250;28;20032;-82
2023/08/08 11:13:07;;;;;;;0.00;0.00;;;29.50;53.30;;;;;;4985138;28;20015;-77
2023/08/08 11:15:34;;;;;;;0.00;0.00;;;28.20;54.40;;;;;;5009564;28;20026;-78
2023/08/08 11:18:01;;;;;;;0.00;0.00;;;27.50;56.10;;;;;;5007231;28;20018;-78
2023/08/08 11:20:31;;;;;;;0.00;0.00;;;26.60;57.10;;;;;;5009571;28;20214;-78
2023/08/08 11:22:57;;;;;;;0.00;0.00;;;26.50;58.00;;;;;;4990730;28;20065;-76
2023/08/08 11:25:25;;;;;;;;;;;26.30;57.90;;;;;;5008817;28;20026;-76
2023/08/08 11:30:34;;;;;;;0.00;0.00;;;25.60;59.60;;;;;;5634566;23;20118;-76
2023/08/08 11:33:00;;;;;;;0.00;0.00;;;25.60;60.20;;;;;;5026980;28;20097;-75
2023/08/08 11:35:27;;;;;;;0.00;0.00;;;25.30;59.50;;;;;;5021814;28;20033;-75
2023/08/08 11:37:54;;;;;;;0.13;0.13;;;25.20;60.30;;;;;;5027525;28;20118;-74
2023/08/08 11:40:23;;;;;;;0.00;0.00;;;25.10;60.50;;;;;;5027526;28;20024;-76
2023/08/08 11:42:51;;;;;;;0.00;0.00;;;25.00;60.10;;;;;;5027867;28;20025;-75
2023/08/08 11:45:17;;;;;;;0.22;0.22;;;25.10;59.40;;;;;;5004819;28;20021;-75
2023/08/08 11:47:48;;;;;;;0.00;0.00;;;25.10;59.60;;;;;;5024764;28;20028;-75
2023/08/08 11:50:18;;;;;;;0.00;0.00;;;25.10;59.40;;;;;;5008402;28;20364;-75
2023/08/08 11:52:46;;;;;;;0.00;0.00;;;25.00;59.80;;;;;;5025606;28;20036;-75
2023/08/08 11:55:13;;;;;;;0.00;0.00;;;25.10;59.80;;;;;;5006107;28;20014;-75
2023/08/08 11:57:40;;;;;;;0.00;0.00;;;24.70;59.10;;;;;;5025257;28;20056;-75
2023/08/08 12:00:14;;;;;;;0.00;0.00;;;25.10;58.20;;;;;;5025656;28;20030;-75
2023/08/08 12:02:41;;;;;;;0.00;0.00;;;25.30;59.70;;;;;;5005722;28;20041;-76
2023/08/08 12:05:13;;;;;;;0.00;0.00;;;25.10;58.50;;;;;;5066009;23;1472811;-75
2023/08/08 12:07:41;;;;;;;0.00;0.00;;;25.10;59.00;;;;;;5022446;28;20014;-76
2023/08/08 12:10:20;;;;;;;0.00;0.00;;;25.10;59.60;;;;;;5025243;28;20084;-75
2023/08/08 12:12:47;;;;;;;0.00;0.00;;;25.10;57.90;;;;;;5022023;28;20009;-78
2023/08/08 12:15:13;;;;;;;0.00;0.00;;;25.20;59.10;;;;;;5024414;28;20073;-76
2023/08/08 12:17:42;;;;;;;0.00;0.00;;;25.20;58.40;;;;;;5029222;28;20010;-75
2023/08/08 12:20:09;;;;;;;0.00;0.00;;;25.30;59.70;;;;;;5027335;28;20030;-75
2023/08/08 12:22:36;;;;;;;0.00;0.00;;;25.30;58.70;;;;;;5029225;28;20029;-75
2023/08/08 12:25:02;;;;;;;0.00;0.00;;;25.40;59.10;;;;;;5024143;28;20033;-78
2023/08/08 12:27:29;;;;;;;0.00;0.00;;;25.50;59.30;;;;;;5023167;28;20123;-75
2023/08/08 12:29:55;;;;;;;0.00;0.00;;;25.50;59.30;;;;;;5026316;28;20033;-74
2023/08/08 12:32:24;;;;;;;0.00;0.00;;;25.60;59.20;;;;;;5022056;28;20034;-77
2023/08/08 12:34:51;;;;;;;0.00;0.00;;;25.70;58.90;;;;;;5022335;28;20038;-76
2023/08/08 12:37:17;;;;;;;0.10;0.10;;;25.60;58.70;;;;;;5025335;28;20033;-75
2023/08/08 12:39:43;;;;;;;0.00;0.00;;;25.70;58.50;;;;;;5024978;28;20026;-76
2023/08/08 12:42:09;;;;;;;;;;;25.50;58.90;;;;;;5024371;28;20022;-75
2023/08/08 12:44:34;;;;;;;0.00;0.00;;;25.60;58.90;;;;;;5022654;28;20117;-76
2023/08/08 12:47:00;;;;;;;;;;;25.60;58.70;;;;;;5019582;28;20033;-75
2023/08/08 12:49:26;;;;;;;0.00;0.00;;;25.00;57.80;;;;;;5024600;28;19893;-74
2023/08/08 12:51:52;;;;;;;;;;;25.30;58.60;;;;;;5022114;28;20034;-75
2023/08/08 12:54:17;;;;;;;0.00;0.00;;;25.20;58.50;;;;;;5023548;28;19905;-76
2023/08/08 12:56:43;;;;;;;;;;;25.30;58.80;;;;;;5021489;28;20022;-76
2023/08/08 12:59:09;;;;;;;0.00;0.00;;;25.30;60.00;;;;;;5037185;28;19956;-74
2023/08/08 13:01:35;;;;;;;;;;;25.30;59.30;;;;;;5026318;28;20037;-77
2023/08/08 13:04:01;;;;;;;0.00;0.00;;;25.50;59.60;;;;;;5040912;28;19917;-76